createdAt,value
2019-01-13T00:00:55.380Z,5.35
2019-01-13T00:01:55.407Z,5.32
2019-01-13T00:02:55.374Z,5.40
2019-01-13T00:03:55.350Z,5.32
2019-01-13T00:04:55.341Z,5.35
2019-01-13T00:05:55.330Z,5.32
2019-01-13T00:06:55.328Z,5.28
2019-01-13T00:07:55.314Z,5.35
2019-01-13T00:08:55.309Z,5.37
2019-01-13T00:09:55.291Z,5.35
2019-01-13T00:10:55.284Z,5.43
2019-01-13T00:11:55.265Z,5.35
2019-01-13T00:12:55.256Z,5.34
2019-01-13T00:14:03.889Z,5.38
2019-01-13T00:15:59.800Z,5.38
2019-01-13T00:16:59.747Z,5.31
2019-01-13T00:17:59.736Z,5.41
2019-01-13T00:18:59.732Z,5.38
2019-01-13T00:19:59.713Z,5.38
2019-01-13T00:20:59.705Z,5.43
2019-01-13T00:21:59.698Z,5.38
2019-01-13T00:22:59.681Z,5.40
2019-01-13T00:23:59.675Z,5.40
2019-01-13T00:24:59.668Z,5.38
2019-01-13T00:25:59.656Z,5.46
2019-01-13T00:26:59.648Z,5.45
2019-01-13T00:27:59.632Z,5.46
2019-01-13T00:28:59.619Z,5.37
2019-01-13T00:29:59.623Z,5.41
2019-01-13T00:30:59.661Z,5.40
2019-01-13T00:31:59.660Z,5.41
2019-01-13T00:32:59.584Z,5.45
2019-01-13T00:33:59.565Z,5.45
2019-01-13T00:34:59.556Z,5.48
2019-01-13T00:35:59.539Z,5.46
2019-01-13T00:36:59.534Z,5.48
2019-01-13T00:37:59.534Z,5.50
2019-01-13T00:38:59.522Z,5.48
2019-01-13T00:39:59.502Z,5.46
2019-01-13T00:40:59.510Z,5.43
2019-01-13T00:41:59.491Z,5.48
2019-01-13T00:42:59.463Z,5.43
2019-01-13T00:43:59.467Z,5.40
2019-01-13T00:44:59.468Z,5.45
2019-01-13T00:45:59.469Z,5.48
2019-01-13T00:46:59.430Z,5.48
2019-01-13T00:47:59.411Z,5.50
2019-01-13T00:48:59.424Z,5.52
2019-01-13T00:49:59.399Z,5.63
2019-01-13T00:51:07.143Z,5.63
2019-01-13T00:53:03.891Z,5.57
2019-01-13T00:54:03.931Z,5.59
2019-01-13T00:55:03.896Z,5.63
2019-01-13T00:56:03.823Z,5.63
2019-01-13T00:57:03.900Z,5.67
2019-01-13T00:58:03.817Z,5.60
2019-01-13T00:59:03.830Z,5.59
2019-01-13T01:00:03.770Z,5.63
2019-01-13T01:01:03.761Z,5.64
2019-01-13T01:02:03.764Z,5.64
2019-01-13T01:03:03.778Z,5.67
2019-01-13T01:04:03.780Z,5.60
2019-01-13T01:05:03.757Z,5.74
2019-01-13T01:06:03.710Z,5.64
2019-01-13T01:07:03.728Z,5.63
2019-01-13T01:08:03.731Z,5.70
2019-01-13T01:09:03.694Z,5.63
2019-01-13T01:10:03.716Z,5.78
2019-01-13T01:11:03.690Z,5.63
2019-01-13T01:12:03.657Z,5.71
2019-01-13T01:13:03.674Z,5.67
2019-01-13T01:14:03.737Z,5.67
2019-01-13T01:15:03.651Z,5.73
2019-01-13T01:16:03.696Z,5.73
2019-01-13T01:17:03.593Z,5.68
2019-01-13T01:18:03.585Z,5.73
2019-01-13T01:19:03.590Z,5.66
2019-01-13T01:20:03.565Z,5.70
2019-01-13T01:21:03.661Z,5.73
2019-01-13T01:22:03.587Z,5.66
2019-01-13T01:23:03.547Z,5.82
2019-01-13T01:24:03.582Z,5.70
2019-01-13T01:25:03.508Z,5.70
2019-01-13T01:26:03.550Z,5.74
2019-01-13T01:27:03.507Z,5.75
2019-01-13T01:28:03.504Z,5.73
2019-01-13T01:29:03.595Z,5.71
2019-01-13T01:30:03.528Z,5.74
2019-01-13T01:31:03.587Z,5.64
2019-01-13T01:32:03.443Z,5.81
2019-01-13T01:33:03.451Z,5.67
2019-01-13T01:34:03.465Z,5.74
2019-01-13T01:35:03.430Z,5.70
2019-01-13T01:36:03.412Z,5.71
2019-01-13T01:37:03.390Z,5.71
2019-01-13T01:38:03.413Z,5.81
2019-01-13T01:39:03.366Z,5.78
2019-01-13T01:40:03.437Z,5.75
2019-01-13T01:41:03.381Z,5.81
2019-01-13T01:42:03.366Z,5.74
2019-01-13T01:43:03.401Z,5.81
2019-01-13T01:44:03.323Z,5.81
2019-01-13T01:45:03.321Z,5.85
2019-01-13T01:46:03.331Z,5.82
2019-01-13T01:47:03.326Z,5.82
2019-01-13T01:48:03.274Z,5.85
2019-01-13T01:49:03.291Z,5.85
2019-01-13T01:50:03.248Z,5.81
2019-01-13T01:51:03.274Z,5.86
2019-01-13T01:52:03.242Z,5.78
2019-01-13T01:53:03.308Z,5.81
2019-01-13T01:54:03.254Z,5.78
2019-01-13T01:55:03.206Z,5.77
2019-01-13T01:56:03.191Z,5.83
2019-01-13T01:57:03.231Z,5.83
2019-01-13T01:58:03.228Z,5.78
2019-01-13T01:59:03.249Z,5.75
2019-01-13T02:00:03.162Z,5.78
2019-01-13T02:01:03.193Z,5.82
2019-01-13T02:02:03.137Z,5.89
2019-01-13T02:03:03.127Z,5.81
2019-01-13T02:04:03.177Z,5.89
2019-01-13T02:05:03.143Z,5.82
2019-01-13T02:06:03.249Z,5.88
2019-01-13T02:07:03.099Z,5.93
2019-01-13T02:08:11.781Z,5.83
2019-01-13T02:10:07.746Z,5.85
2019-01-13T02:11:07.620Z,5.91
2019-01-13T02:12:07.690Z,5.93
2019-01-13T02:13:07.619Z,5.92
2019-01-13T02:14:07.596Z,5.96
2019-01-13T02:15:07.585Z,5.91
2019-01-13T02:16:07.593Z,5.85
2019-01-13T02:17:07.552Z,5.93
2019-01-13T02:18:07.593Z,5.92
2019-01-13T02:19:07.566Z,5.91
2019-01-13T02:20:07.572Z,5.95
2019-01-13T02:21:07.523Z,5.88
2019-01-13T02:22:07.517Z,5.89
2019-01-13T02:23:07.516Z,5.86
2019-01-13T02:24:07.502Z,5.92
2019-01-13T02:25:07.519Z,5.95
2019-01-13T02:26:07.528Z,5.92
2019-01-13T02:27:07.467Z,5.85
2019-01-13T02:28:07.444Z,6.00
2019-01-13T02:29:07.454Z,5.91
2019-01-13T02:30:07.439Z,5.93
2019-01-13T02:31:07.469Z,5.91
2019-01-13T02:32:07.397Z,5.96
2019-01-13T02:33:07.393Z,5.95
2019-01-13T02:34:07.409Z,5.95
2019-01-13T02:35:07.393Z,5.95
2019-01-13T02:36:07.371Z,5.85
2019-01-13T02:37:07.364Z,5.91
2019-01-13T02:38:07.358Z,5.98
2019-01-13T02:39:07.329Z,5.96
2019-01-13T02:40:07.330Z,5.88
2019-01-13T02:41:07.345Z,5.93
2019-01-13T02:42:07.306Z,5.88
2019-01-13T02:43:07.325Z,5.92
2019-01-13T02:44:07.274Z,5.93
2019-01-13T02:45:07.268Z,5.86
2019-01-13T02:46:07.284Z,5.85
2019-01-13T02:47:07.277Z,5.93
2019-01-13T02:48:07.241Z,5.89
2019-01-13T02:49:07.242Z,5.89
2019-01-13T02:50:07.215Z,5.93
2019-01-13T02:51:07.247Z,5.89
2019-01-13T02:52:07.193Z,5.92
2019-01-13T02:53:07.190Z,5.95
2019-01-13T02:54:07.173Z,6.01
2019-01-13T02:55:07.165Z,5.98
2019-01-13T02:56:07.197Z,6.03
2019-01-13T02:57:07.160Z,5.89
2019-01-13T03:14:57.917Z,6.07
2019-01-13T03:15:57.851Z,6.01
2019-01-13T03:16:57.864Z,5.98
2019-01-13T03:17:57.814Z,6.06
2019-01-13T03:18:57.816Z,6.04
2019-01-13T03:19:57.797Z,6.09
2019-01-13T03:20:57.830Z,6.01
2019-01-13T03:21:57.790Z,6.04
2019-01-13T03:22:57.760Z,6.06
2019-01-13T03:23:57.766Z,6.10
2019-01-13T03:24:57.727Z,6.07
2019-01-13T03:25:57.717Z,6.14
2019-01-13T03:26:57.716Z,6.14
2019-01-13T03:27:57.717Z,6.11
2019-01-13T03:28:57.691Z,6.11
2019-01-13T03:29:57.701Z,6.18
2019-01-13T03:31:10.637Z,6.21
2019-01-13T03:31:57.701Z,6.14
2019-01-13T03:32:57.677Z,6.25
2019-01-13T03:33:57.634Z,6.14
2019-01-13T03:34:57.630Z,6.13
2019-01-13T03:35:57.636Z,6.28
2019-01-13T03:36:57.626Z,6.25
2019-01-13T03:38:07.901Z,6.11
2019-01-13T03:40:02.086Z,6.30
2019-01-13T03:41:02.034Z,6.30
2019-01-13T03:42:02.079Z,6.35
2019-01-13T03:43:02.038Z,6.29
2019-01-13T03:44:02.041Z,6.22
2019-01-13T03:45:02.007Z,6.35
2019-01-13T03:46:01.994Z,6.36
2019-01-13T03:47:01.983Z,6.35
2019-01-13T03:48:01.971Z,6.38
2019-01-13T03:49:01.966Z,6.35
2019-01-13T03:50:01.960Z,6.38
2019-01-13T03:51:01.933Z,6.38
2019-01-13T03:52:01.928Z,6.33
2019-01-13T03:53:01.921Z,6.36
2019-01-13T03:54:01.918Z,6.32
2019-01-13T03:55:01.901Z,6.33
2019-01-13T03:56:01.892Z,6.33
2019-01-13T03:57:01.928Z,6.35
2019-01-13T03:58:01.868Z,6.36
2019-01-13T03:59:01.872Z,6.43
2019-01-13T04:00:01.876Z,6.40
2019-01-13T04:01:01.859Z,6.33
2019-01-13T04:02:01.854Z,6.33
2019-01-13T04:03:11.520Z,6.32
2019-01-13T04:05:06.333Z,6.33
2019-01-13T04:06:06.298Z,6.38
2019-01-13T04:07:06.296Z,6.43
2019-01-13T04:08:15.979Z,6.33
2019-01-13T04:10:10.800Z,6.43
2019-01-13T04:11:10.720Z,6.40
2019-01-13T04:12:10.724Z,6.46
2019-01-13T04:13:10.714Z,6.40
2019-01-13T04:14:10.710Z,6.36
2019-01-13T04:15:10.707Z,6.38
2019-01-13T04:16:10.663Z,6.43
2019-01-13T04:17:10.662Z,6.46
2019-01-13T04:18:10.668Z,6.41
2019-01-13T04:19:10.663Z,6.43
2019-01-13T04:20:10.641Z,6.40
2019-01-13T04:21:10.623Z,6.40
2019-01-13T04:22:10.630Z,6.43
2019-01-13T04:23:10.600Z,6.41
2019-01-13T04:24:10.638Z,6.46
2019-01-13T04:25:10.578Z,6.46
2019-01-13T04:26:10.596Z,6.44
2019-01-13T04:27:10.570Z,6.41
2019-01-13T04:28:10.547Z,6.46
2019-01-13T04:29:10.546Z,6.43
2019-01-13T04:30:10.534Z,6.50
2019-01-13T04:31:10.522Z,6.50
2019-01-13T04:32:10.508Z,6.46
2019-01-13T04:33:10.550Z,6.43
2019-01-13T04:34:10.498Z,6.48
2019-01-13T04:35:19.131Z,6.46
2019-01-13T04:37:15.011Z,6.47
2019-01-13T04:38:14.931Z,6.44
2019-01-13T04:39:14.983Z,6.46
2019-01-13T04:40:14.909Z,6.48
2019-01-13T04:41:23.565Z,6.41
2019-01-13T04:43:19.427Z,6.36
2019-01-13T04:44:19.376Z,6.47
2019-01-13T04:45:19.384Z,6.44
2019-01-13T04:46:19.372Z,6.51
2019-01-13T04:47:19.344Z,6.46
2019-01-13T04:48:19.354Z,6.44
2019-01-13T04:49:19.360Z,6.54
2019-01-13T04:50:19.338Z,6.51
2019-01-13T04:51:19.329Z,6.58
2019-01-13T04:52:19.293Z,6.51
2019-01-13T04:53:19.306Z,6.53
2019-01-13T04:54:19.261Z,6.54
2019-01-13T04:55:19.262Z,6.59
2019-01-13T04:56:19.285Z,6.58
2019-01-13T04:57:19.236Z,6.53
2019-01-13T04:58:19.220Z,6.56
2019-01-13T04:59:19.240Z,6.58
2019-01-13T05:00:19.211Z,6.54
2019-01-13T05:01:19.214Z,6.58
2019-01-13T05:02:19.198Z,6.59
2019-01-13T05:03:19.209Z,6.65
2019-01-13T05:04:19.181Z,6.65
2019-01-13T05:05:19.187Z,6.54
2019-01-13T05:06:19.147Z,6.66
2019-01-13T05:07:19.133Z,6.56
2019-01-13T05:08:19.143Z,6.54
2019-01-13T05:09:19.121Z,6.54
2019-01-13T05:10:19.138Z,6.59
2019-01-13T05:11:19.112Z,6.62
2019-01-13T05:12:19.086Z,6.61
2019-01-13T05:13:19.084Z,6.63
2019-01-13T05:14:19.110Z,6.61
2019-01-13T05:15:19.080Z,6.56
2019-01-13T05:16:19.059Z,6.61
2019-01-13T05:17:19.063Z,6.65
2019-01-13T05:18:19.030Z,6.59
2019-01-13T05:19:19.056Z,6.59
2019-01-13T05:20:19.065Z,6.65
2019-01-13T05:21:19.006Z,6.66
2019-01-13T05:22:19.019Z,6.63
2019-01-13T05:23:18.983Z,6.68
2019-01-13T05:24:18.990Z,6.54
2019-01-13T05:25:18.971Z,6.61
2019-01-13T05:26:19.688Z,6.54
2019-01-13T05:27:18.953Z,6.53
2019-01-13T05:28:18.929Z,6.58
2019-01-13T05:29:18.927Z,6.59
2019-01-13T05:30:28.645Z,6.53
2019-01-13T05:32:13.369Z,6.63
2019-01-13T05:33:13.305Z,6.61
2019-01-13T05:34:13.313Z,6.62
2019-01-13T05:35:13.304Z,6.54
2019-01-13T05:36:13.334Z,6.54
2019-01-13T05:37:13.311Z,6.61
2019-01-13T05:38:13.261Z,6.50
2019-01-13T05:39:13.356Z,6.59
2019-01-13T05:40:13.249Z,6.51
2019-01-13T05:41:13.268Z,6.63
2019-01-13T05:42:13.229Z,6.65
2019-01-13T05:43:13.206Z,6.63
2019-01-13T05:44:13.200Z,6.63
2019-01-13T05:45:13.217Z,6.61
2019-01-13T05:46:13.194Z,6.62
2019-01-13T05:47:13.199Z,6.53
2019-01-13T05:48:13.160Z,6.54
2019-01-13T05:49:13.163Z,6.54
2019-01-13T05:50:13.191Z,6.59
2019-01-13T05:51:13.184Z,6.59
2019-01-13T05:52:13.161Z,6.63
2019-01-13T05:53:13.150Z,6.61
2019-01-13T05:54:13.131Z,6.59
2019-01-13T05:55:13.089Z,6.59
2019-01-13T05:56:13.082Z,6.53
2019-01-13T05:57:13.105Z,6.59
2019-01-13T05:58:13.076Z,6.61
2019-01-13T05:59:13.067Z,6.61
2019-01-13T06:00:13.062Z,6.56
2019-01-13T06:01:13.092Z,6.59
2019-01-13T06:02:13.022Z,6.61
2019-01-13T06:03:13.018Z,6.62
2019-01-13T06:04:13.043Z,6.66
2019-01-13T06:05:13.050Z,6.65
2019-01-13T06:06:13.024Z,6.66
2019-01-13T06:07:13.027Z,6.66
2019-01-13T06:08:12.968Z,6.65
2019-01-13T06:09:12.950Z,6.61
2019-01-13T06:10:12.946Z,6.62
2019-01-13T06:11:12.951Z,6.63
2019-01-13T06:12:12.952Z,6.68
2019-01-13T06:13:12.968Z,6.69
2019-01-13T06:14:12.935Z,6.68
2019-01-13T06:15:12.894Z,6.66
2019-01-13T06:16:12.910Z,6.66
2019-01-13T06:17:12.899Z,6.63
2019-01-13T06:18:12.866Z,6.63
2019-01-13T06:19:12.881Z,6.62
2019-01-13T06:20:12.843Z,6.65
2019-01-13T06:21:12.837Z,6.68
2019-01-13T06:22:12.860Z,6.68
2019-01-13T06:23:12.827Z,6.63
2019-01-13T06:24:12.802Z,6.63
2019-01-13T06:25:12.830Z,6.68
2019-01-13T06:26:12.790Z,6.68
2019-01-13T06:27:12.809Z,6.71
2019-01-13T06:28:12.776Z,6.76
2019-01-13T06:29:12.769Z,6.69
2019-01-13T06:30:12.776Z,6.68
2019-01-13T06:31:12.737Z,6.71
2019-01-13T06:32:12.727Z,6.66
2019-01-13T06:33:12.717Z,6.69
2019-01-13T06:34:12.739Z,6.63
2019-01-13T06:35:12.770Z,6.69
2019-01-13T06:36:12.718Z,6.71
2019-01-13T06:37:12.730Z,6.69
2019-01-13T06:38:12.734Z,6.71
2019-01-13T06:39:12.661Z,6.69
2019-01-13T06:40:12.683Z,6.72
2019-01-13T06:41:12.642Z,6.72
2019-01-13T06:42:12.631Z,6.68
2019-01-13T06:43:12.655Z,6.65
2019-01-13T06:44:12.659Z,6.68
2019-01-13T06:45:12.597Z,6.76
2019-01-13T06:46:12.604Z,6.76
2019-01-13T06:47:12.584Z,6.65
2019-01-13T06:48:12.571Z,6.65
2019-01-13T06:49:12.587Z,6.69
2019-01-13T06:50:12.563Z,6.66
2019-01-13T06:51:12.549Z,6.73
2019-01-13T06:52:12.529Z,6.79
2019-01-13T06:53:12.540Z,6.68
2019-01-13T06:54:12.512Z,6.69
2019-01-13T06:55:12.541Z,6.79
2019-01-13T06:56:12.498Z,6.73
2019-01-13T06:57:12.532Z,6.72
2019-01-13T06:58:12.480Z,6.73
2019-01-13T06:59:12.494Z,6.72
2019-01-13T07:00:12.461Z,6.76
2019-01-13T07:01:12.443Z,6.87
2019-01-13T07:02:12.441Z,6.80
2019-01-13T07:03:12.499Z,6.83
2019-01-13T07:04:12.412Z,6.81
2019-01-13T07:05:12.430Z,6.81
2019-01-13T07:06:12.405Z,6.81
2019-01-13T07:07:12.409Z,6.87
2019-01-13T07:08:12.401Z,6.83
2019-01-13T07:09:12.393Z,6.77
2019-01-13T07:10:12.394Z,6.80
2019-01-13T07:11:12.388Z,6.84
2019-01-13T07:12:12.361Z,6.77
2019-01-13T07:13:12.333Z,6.77
2019-01-13T07:14:12.330Z,6.77
2019-01-13T07:15:12.317Z,6.79
2019-01-13T07:16:12.304Z,6.79
2019-01-13T07:17:12.298Z,6.77
2019-01-13T07:18:12.332Z,6.73
2019-01-13T07:19:12.279Z,6.79
2019-01-13T07:20:12.303Z,6.77
2019-01-13T07:21:12.257Z,6.77
2019-01-13T07:22:12.250Z,6.77
2019-01-13T07:23:12.260Z,6.84
2019-01-13T07:24:12.253Z,6.80
2019-01-13T07:25:12.306Z,6.87
2019-01-13T07:26:12.211Z,6.86
2019-01-13T07:27:12.198Z,6.87
2019-01-13T07:28:12.791Z,6.77
2019-01-13T07:29:12.218Z,6.84
2019-01-13T07:30:12.791Z,6.84
2019-01-13T07:31:12.198Z,6.84
2019-01-13T07:32:12.249Z,6.83
2019-01-13T07:33:12.155Z,6.89
2019-01-13T07:34:12.162Z,6.79
2019-01-13T07:35:12.154Z,6.86
2019-01-13T07:36:12.165Z,6.77
2019-01-13T07:37:12.234Z,6.79
2019-01-13T07:38:12.140Z,6.81
2019-01-13T07:39:12.138Z,6.95
2019-01-13T07:40:12.088Z,6.91
2019-01-13T07:41:12.098Z,6.81
2019-01-13T07:42:12.113Z,6.89
2019-01-13T07:43:12.049Z,6.90
2019-01-13T07:44:12.089Z,6.95
2019-01-13T07:45:12.052Z,6.94
2019-01-13T07:46:12.063Z,6.91
2019-01-13T07:47:12.046Z,6.99
2019-01-13T07:48:12.055Z,6.98
2019-01-13T07:49:12.021Z,6.90
2019-01-13T07:50:12.010Z,6.97
2019-01-13T07:51:11.987Z,6.91
2019-01-13T07:52:12.051Z,6.95
2019-01-13T07:53:11.975Z,6.87
2019-01-13T07:54:11.954Z,6.89
2019-01-13T07:55:11.952Z,6.98
2019-01-13T07:56:11.942Z,6.95
2019-01-13T07:57:11.937Z,6.91
2019-01-13T07:58:11.959Z,6.89
2019-01-13T07:59:11.914Z,6.94
2019-01-13T08:00:11.889Z,6.90
2019-01-13T08:01:11.888Z,6.87
2019-01-13T08:02:17.847Z,6.79
2019-01-13T08:03:11.885Z,6.94
2019-01-13T08:04:11.850Z,6.80
2019-01-13T08:05:11.933Z,6.80
2019-01-13T08:06:11.975Z,6.79
2019-01-13T08:07:11.830Z,6.83
2019-01-13T08:08:11.837Z,6.84
2019-01-13T08:09:11.870Z,6.86
2019-01-13T08:10:11.793Z,6.83
2019-01-13T08:11:11.892Z,6.84
2019-01-13T08:12:20.871Z,6.89
2019-01-13T08:14:16.297Z,6.81
2019-01-13T08:15:25.945Z,6.87
2019-01-13T08:17:09.952Z,6.81
2019-01-13T08:18:18.840Z,6.89
2019-01-13T08:20:14.502Z,6.80
2019-01-13T08:21:14.323Z,6.89
2019-01-13T08:22:14.332Z,6.81
2019-01-13T08:23:14.296Z,6.69
2019-01-13T08:24:14.288Z,6.80
2019-01-13T08:25:14.262Z,6.79
2019-01-13T08:26:14.289Z,6.73
2019-01-13T08:27:14.277Z,6.72
2019-01-13T08:28:14.297Z,6.71
2019-01-13T08:29:14.289Z,6.68
2019-01-13T08:30:14.498Z,6.71
2019-01-13T08:31:14.240Z,6.71
2019-01-13T08:32:14.308Z,6.69
2019-01-13T08:33:14.221Z,6.72
2019-01-13T08:34:14.261Z,6.71
2019-01-13T08:35:14.194Z,6.66
2019-01-13T08:36:14.166Z,6.66
2019-01-13T08:37:14.179Z,6.68
2019-01-13T08:38:14.142Z,6.71
2019-01-13T08:39:14.153Z,6.69
2019-01-13T08:40:14.142Z,6.63
2019-01-13T08:41:14.109Z,6.66
2019-01-13T08:42:14.151Z,6.65
2019-01-13T08:43:14.094Z,6.66
2019-01-13T08:44:14.117Z,6.68
2019-01-13T08:45:14.093Z,6.72
2019-01-13T08:46:14.083Z,6.66
2019-01-13T08:47:14.059Z,6.76
2019-01-13T08:48:14.053Z,6.77
2019-01-13T08:49:14.072Z,6.68
2019-01-13T08:50:14.044Z,6.63
2019-01-13T08:51:14.058Z,6.68
2019-01-13T08:52:14.094Z,6.68
2019-01-13T08:53:14.023Z,6.68
2019-01-13T08:54:14.052Z,6.68
2019-01-13T08:55:13.976Z,6.69
2019-01-13T08:56:13.988Z,6.69
2019-01-13T08:57:14.671Z,6.71
2019-01-13T08:58:13.985Z,6.69
2019-01-13T08:59:13.962Z,6.66
2019-01-13T09:00:14.077Z,6.73
2019-01-13T09:01:13.933Z,6.71
2019-01-13T09:02:13.909Z,6.66
2019-01-13T09:03:13.906Z,6.69
2019-01-13T09:04:13.905Z,6.69
2019-01-13T09:05:13.912Z,6.76
2019-01-13T09:06:13.923Z,6.71
2019-01-13T09:07:13.881Z,6.69
2019-01-13T09:08:13.844Z,6.80
2019-01-13T09:09:13.841Z,6.76
2019-01-13T09:10:13.835Z,6.80
2019-01-13T09:11:13.813Z,6.84
2019-01-13T09:12:13.807Z,6.68
2019-01-13T09:13:13.863Z,6.80
2019-01-13T09:14:13.819Z,6.81
2019-01-13T09:15:13.784Z,6.81
2019-01-13T09:16:13.819Z,6.79
2019-01-13T09:17:13.788Z,6.83
2019-01-13T09:18:13.839Z,6.79
2019-01-13T09:19:13.799Z,6.81
2019-01-13T09:20:13.740Z,6.84
2019-01-13T09:21:13.725Z,6.87
2019-01-13T09:22:13.735Z,6.80
2019-01-13T09:23:13.758Z,6.83
2019-01-13T09:24:13.808Z,6.87
2019-01-13T09:25:13.714Z,6.79
2019-01-13T09:26:13.701Z,6.81
2019-01-13T09:27:13.722Z,6.89
2019-01-13T09:28:13.664Z,6.84
2019-01-13T09:29:13.659Z,6.87
2019-01-13T09:30:13.632Z,6.83
2019-01-13T09:31:13.661Z,6.83
2019-01-13T09:32:13.633Z,6.87
2019-01-13T09:33:13.635Z,6.83
2019-01-13T09:34:13.641Z,6.86
2019-01-13T09:35:13.592Z,6.83
2019-01-13T09:36:13.640Z,6.83
2019-01-13T09:37:13.606Z,6.83
2019-01-13T09:38:13.631Z,6.80
2019-01-13T09:39:13.671Z,6.83
2019-01-13T09:40:13.679Z,6.84
2019-01-13T09:41:13.538Z,6.80
2019-01-13T09:42:13.643Z,6.79
2019-01-13T09:43:13.612Z,6.84
2019-01-13T09:44:13.596Z,6.84
2019-01-13T09:45:13.491Z,6.95
2019-01-13T09:46:13.478Z,6.95
2019-01-13T09:47:13.579Z,6.90
2019-01-13T09:48:13.585Z,6.91
2019-01-13T09:49:13.528Z,6.95
2019-01-13T09:50:13.488Z,6.94
2019-01-13T09:51:13.459Z,6.87
2019-01-13T09:52:13.418Z,6.97
2019-01-13T09:53:13.439Z,6.91
2019-01-13T09:54:13.425Z,6.90
2019-01-13T09:55:13.404Z,6.91
2019-01-13T09:56:13.424Z,6.97
2019-01-13T09:57:13.396Z,6.95
2019-01-13T09:58:13.387Z,6.94
2019-01-13T09:59:13.442Z,6.95
2019-01-13T10:00:13.371Z,6.97
2019-01-13T10:01:13.374Z,6.91
2019-01-13T10:02:13.381Z,6.95
2019-01-13T10:03:13.363Z,6.94
2019-01-13T10:04:13.324Z,6.95
2019-01-13T10:05:13.302Z,7.08
2019-01-13T10:06:13.317Z,6.97
2019-01-13T10:07:13.302Z,6.97
2019-01-13T10:08:13.404Z,6.99
2019-01-13T10:09:13.310Z,6.89
2019-01-13T10:10:13.303Z,6.90
2019-01-13T10:11:13.263Z,6.97
2019-01-13T10:12:13.289Z,6.99
2019-01-13T10:13:13.254Z,6.91
2019-01-13T10:14:13.234Z,6.91
2019-01-13T10:15:13.924Z,6.94
2019-01-13T10:16:13.356Z,6.95
2019-01-13T10:17:13.256Z,6.90
2019-01-13T10:18:13.176Z,6.95
2019-01-13T10:19:13.185Z,6.98
2019-01-13T10:20:13.193Z,6.98
2019-01-13T10:21:13.202Z,6.99
2019-01-13T10:22:13.166Z,6.95
2019-01-13T10:23:13.201Z,6.99
2019-01-13T10:24:13.159Z,6.98
2019-01-13T10:25:13.109Z,6.97
2019-01-13T10:26:13.163Z,6.97
2019-01-13T10:27:13.107Z,6.97
2019-01-13T10:28:13.139Z,6.95
2019-01-13T10:29:13.105Z,6.97
2019-01-13T10:30:13.108Z,6.97
2019-01-13T10:31:13.069Z,7.05
2019-01-13T10:32:13.099Z,6.98
2019-01-13T10:33:13.080Z,7.02
2019-01-13T10:34:13.072Z,7.08
2019-01-13T10:35:13.018Z,7.05
2019-01-13T10:36:13.107Z,7.05
2019-01-13T10:37:13.094Z,7.09
2019-01-13T10:38:13.013Z,7.08
2019-01-13T10:39:13.014Z,7.09
2019-01-13T10:40:13.002Z,7.12
2019-01-13T10:41:13.000Z,7.04
2019-01-13T10:42:12.959Z,7.12
2019-01-13T10:43:12.962Z,7.04
2019-01-13T10:44:13.029Z,7.13
2019-01-13T10:45:12.983Z,7.04
2019-01-13T10:46:12.937Z,7.09
2019-01-13T10:47:12.901Z,7.16
2019-01-13T10:48:12.959Z,7.17
2019-01-13T10:49:12.893Z,7.17
2019-01-13T10:50:12.919Z,7.22
2019-01-13T10:51:12.890Z,7.23
2019-01-13T10:52:12.885Z,7.16
2019-01-13T10:53:12.891Z,7.20
2019-01-13T10:54:12.883Z,7.20
2019-01-13T10:55:12.901Z,7.24
2019-01-13T10:56:12.853Z,7.19
2019-01-13T10:57:12.902Z,7.24
2019-01-13T10:58:12.863Z,7.24
2019-01-13T10:59:12.850Z,7.20
2019-01-13T11:00:12.787Z,7.13
2019-01-13T11:01:12.850Z,7.16
2019-01-13T11:02:12.765Z,7.12
2019-01-13T11:03:12.787Z,7.16
2019-01-13T11:04:12.774Z,7.20
2019-01-13T11:05:12.735Z,7.24
2019-01-13T11:06:12.757Z,7.19
2019-01-13T11:07:12.783Z,7.19
2019-01-13T11:08:12.707Z,7.22
2019-01-13T11:09:12.703Z,7.17
2019-01-13T11:10:12.703Z,7.26
2019-01-13T11:11:12.690Z,7.24
2019-01-13T11:12:12.709Z,7.31
2019-01-13T11:13:12.710Z,7.27
2019-01-13T11:14:12.687Z,7.29
2019-01-13T11:15:12.634Z,7.29
2019-01-13T11:16:12.648Z,7.29
2019-01-13T11:17:12.643Z,7.32
2019-01-13T11:18:12.604Z,7.34
2019-01-13T11:19:12.643Z,7.29
2019-01-13T11:20:12.614Z,7.32
2019-01-13T11:21:12.586Z,7.24
2019-01-13T11:22:12.593Z,7.23
2019-01-13T11:23:12.585Z,7.31
2019-01-13T11:24:12.562Z,7.31
2019-01-13T11:25:12.541Z,7.27
2019-01-13T11:26:12.574Z,7.19
2019-01-13T11:27:12.582Z,7.27
2019-01-13T11:28:12.613Z,7.23
2019-01-13T11:29:12.523Z,7.23
2019-01-13T11:30:12.529Z,7.22
2019-01-13T11:31:12.509Z,7.23
2019-01-13T11:32:12.476Z,7.29
2019-01-13T11:33:12.489Z,7.20
2019-01-13T11:34:12.481Z,7.24
2019-01-13T11:35:12.454Z,7.17
2019-01-13T11:36:12.448Z,7.24
2019-01-13T11:37:12.461Z,7.17
2019-01-13T11:38:12.448Z,7.24
2019-01-13T11:39:12.434Z,7.20
2019-01-13T11:40:12.401Z,7.24
2019-01-13T11:41:12.404Z,7.20
2019-01-13T11:42:12.395Z,7.26
2019-01-13T11:43:12.390Z,7.23
2019-01-13T11:44:12.399Z,7.24
2019-01-13T11:45:12.363Z,7.19
2019-01-13T11:46:12.416Z,7.27
2019-01-13T11:47:12.363Z,7.31
2019-01-13T11:48:12.341Z,7.29
2019-01-13T11:49:12.335Z,7.29
2019-01-13T11:50:12.357Z,7.32
2019-01-13T11:51:12.331Z,7.29
2019-01-13T11:52:12.298Z,7.31
2019-01-13T11:53:12.392Z,7.29
2019-01-13T11:54:12.299Z,7.31
2019-01-13T11:55:12.338Z,7.37
2019-01-13T11:56:13.281Z,7.31
2019-01-13T11:57:12.244Z,7.32
2019-01-13T11:58:12.244Z,7.32
2019-01-13T11:59:12.232Z,7.34
2019-01-13T12:00:12.234Z,7.29
2019-01-13T12:01:12.263Z,7.26
2019-01-13T12:02:12.213Z,7.34
2019-01-13T12:03:16.692Z,7.38
2019-01-13T12:04:12.241Z,7.35
2019-01-13T12:05:12.182Z,7.37
2019-01-13T12:06:12.169Z,7.37
2019-01-13T12:07:12.181Z,7.38
2019-01-13T12:08:12.201Z,7.38
2019-01-13T12:09:12.131Z,7.38
2019-01-13T12:10:12.140Z,7.40
2019-01-13T12:11:12.116Z,7.41
2019-01-13T12:12:12.108Z,7.42
2019-01-13T12:13:12.095Z,7.35
2019-01-13T12:14:12.141Z,7.41
2019-01-13T12:15:12.083Z,7.35
2019-01-13T12:16:12.075Z,7.44
2019-01-13T12:17:12.065Z,7.40
2019-01-13T12:18:12.144Z,7.38
2019-01-13T12:19:12.062Z,7.44
2019-01-13T12:20:12.063Z,7.41
2019-01-13T12:21:12.053Z,7.40
2019-01-13T12:22:12.068Z,7.47
2019-01-13T12:23:12.062Z,7.41
2019-01-13T12:24:12.022Z,7.41
2019-01-13T12:25:12.049Z,7.49
2019-01-13T12:26:12.023Z,7.52
2019-01-13T12:27:11.988Z,7.40
2019-01-13T12:28:12.005Z,7.32
2019-01-13T12:29:12.003Z,7.40
2019-01-13T12:30:11.938Z,7.53
2019-01-13T12:31:12.048Z,7.41
2019-01-13T12:32:11.931Z,7.35
2019-01-13T12:33:11.914Z,7.47
2019-01-13T12:34:11.955Z,7.49
2019-01-13T12:35:11.924Z,7.38
2019-01-13T12:36:11.900Z,7.50
2019-01-13T12:37:11.870Z,7.47
2019-01-13T12:38:11.871Z,7.47
2019-01-13T12:39:11.873Z,7.47
2019-01-13T12:40:11.875Z,7.52
2019-01-13T12:41:11.873Z,7.52
2019-01-13T12:42:11.883Z,7.49
2019-01-13T12:43:11.821Z,7.47
2019-01-13T12:44:11.916Z,7.47
2019-01-13T12:45:11.840Z,7.50
2019-01-13T12:46:11.851Z,7.47
2019-01-13T12:47:11.834Z,7.53
2019-01-13T12:48:11.818Z,7.56
2019-01-13T12:49:11.892Z,7.59
2019-01-13T12:50:11.764Z,7.60
2019-01-13T12:51:11.793Z,7.60
2019-01-13T12:52:11.787Z,7.56
2019-01-13T12:53:11.721Z,7.59
2019-01-13T12:54:11.837Z,7.52
2019-01-13T12:55:11.775Z,7.56
2019-01-13T12:56:11.720Z,7.56
2019-01-13T12:57:11.718Z,7.59
2019-01-13T12:58:11.740Z,7.56
2019-01-13T12:59:11.717Z,7.62
2019-01-13T13:00:11.773Z,7.59
2019-01-13T13:01:11.677Z,7.62
2019-01-13T13:02:11.717Z,7.66
2019-01-13T13:03:11.638Z,7.71
2019-01-13T13:04:11.644Z,7.67
2019-01-13T13:05:11.695Z,7.67
2019-01-13T13:06:11.638Z,7.63
2019-01-13T13:07:11.659Z,7.63
2019-01-13T13:08:11.612Z,7.67
2019-01-13T13:09:11.580Z,7.71
2019-01-13T13:10:11.568Z,7.62
2019-01-13T13:11:11.719Z,7.74
2019-01-13T13:12:11.586Z,7.66
2019-01-13T13:13:11.544Z,7.67
2019-01-13T13:14:11.560Z,7.63
2019-01-13T13:15:11.548Z,7.75
2019-01-13T13:16:11.519Z,7.75
2019-01-13T13:17:11.509Z,7.77
2019-01-13T13:18:11.562Z,7.75
2019-01-13T13:19:11.537Z,7.74
2019-01-13T13:20:11.476Z,7.78
2019-01-13T13:21:11.508Z,7.81
2019-01-13T13:22:11.523Z,7.81
2019-01-13T13:23:11.471Z,7.87
2019-01-13T13:24:11.498Z,7.85
2019-01-13T13:25:11.443Z,7.79
2019-01-13T13:26:11.531Z,7.84
2019-01-13T13:27:11.415Z,7.82
2019-01-13T13:28:11.447Z,7.84
2019-01-13T13:29:11.408Z,7.87
2019-01-13T13:30:11.428Z,7.92
2019-01-13T13:31:11.407Z,7.93
2019-01-13T13:32:11.412Z,7.94
2019-01-13T13:33:11.379Z,7.87
2019-01-13T13:34:11.349Z,7.87
2019-01-13T13:35:11.392Z,7.94
2019-01-13T13:36:11.391Z,7.94
2019-01-13T13:37:11.333Z,7.97
2019-01-13T13:38:11.326Z,7.89
2019-01-13T13:39:11.335Z,7.94
2019-01-13T13:40:11.316Z,7.99
2019-01-13T13:41:11.341Z,8.04
2019-01-13T13:42:11.354Z,8.03
2019-01-13T13:43:11.276Z,7.96
2019-01-13T13:44:11.279Z,8.04
2019-01-13T13:45:11.275Z,8.02
2019-01-13T13:46:11.256Z,8.07
2019-01-13T13:47:11.281Z,7.97
2019-01-13T13:48:11.268Z,8.07